Time;durP1;ratioP1;P1;durP2;ratioP2;P2;SDS_P1;SDS_P2;PMS_P1;PMS_P2;Temp;Humidity;BMP_temperature;BMP_pressure;BME280_temperature;BME280_humidity;BME280_pressure;Samples;Min_cycle;Max_cycle;Signal;HPM_P1;HPM_P2
2021/12/17 00:07:00;;;;;;;17.60;4.72;;;;;;;4.79;81.78;100447.56;1743459;81;21042;-51
2021/12/17 00:09:26;;;;;;;19.50;4.83;;;;;;;4.77;81.71;100437.61;1730979;80;21010;-51
2021/12/17 00:11:52;;;;;;;23.62;4.87;;;;;;;4.71;81.88;100441.61;1733944;81;21542;-49
2021/12/17 00:14:26;;;;;;;19.30;5.35;;;;;;;4.66;81.94;100438.61;1731024;81;20982;-50
2021/12/17 00:16:45;;;;;;;20.80;5.62;;;;;;;4.67;82.24;100438.59;1725122;80;21050;-51
2021/12/17 00:19:26;;;;;;;18.32;4.53;;;;;;;4.69;82.03;100444.64;1725640;81;21002;-52
2021/12/17 00:48:57;;;;;;;23.30;4.40;;;;;;;4.32;82.92;100460.72;1733560;81;20142;-49
2021/12/17 00:51:55;;;;;;;24.47;4.60;;;;;;;4.46;82.98;100461.88;1745644;80;20994;-49
2021/12/17 00:54:21;;;;;;;25.08;5.42;;;;;;;4.46;82.75;100447.55;1726461;81;21452;-49
2021/12/17 00:56:53;;;;;;;20.37;3.70;;;;;;;4.45;82.93;100443.21;1736387;81;21112;-53
2021/12/17 00:59:20;;;;;;;20.88;5.20;;;;;;;4.42;83.09;100451.05;1727823;81;21050;-49
2021/12/17 01:01:47;;;;;;;27.67;5.03;;;;;;;4.41;83.17;100455.86;1730071;81;21006;-49
2021/12/17 01:04:14;;;;;;;19.62;4.17;;;;;;;4.49;83.03;100454.46;1729580;81;21499;-48
2021/12/17 01:06:40;;;;;;;26.48;5.65;;;;;;;4.27;83.44;100464.25;1744026;80;20974;-51
2021/12/17 01:09:09;;;;;;;18.30;4.17;;;;;;;4.41;83.22;100461.06;1719373;81;21017;-50
2021/12/17 01:11:36;;;;;;;20.68;4.42;;;;;;;4.36;83.10;100441.57;1736952;81;21060;-52
2021/12/17 01:14:04;;;;;;;24.67;5.70;;;;;;;4.42;83.05;100450.63;1723721;81;21022;-50
2021/12/17 01:16:30;;;;;;;19.25;4.47;;;;;;;4.44;82.93;100451.92;1727084;80;21086;-49
2021/12/17 01:19:16;;;;;;;14.38;4.60;;;;;;;4.40;82.91;100464.53;1729563;81;20996;-50
2021/12/17 01:21:56;;;;;;;16.25;4.42;;;;;;;4.47;82.90;100460.98;1722502;80;21514;-48
2021/12/17 01:42:58;;;;;;;20.33;4.27;;;;;;;4.33;83.41;100467.67;1724037;81;21566;-50
2021/12/17 01:45:28;;;;;;;16.87;3.70;;;;;;;4.27;83.91;100474.67;1723832;81;21066;-52
2021/12/17 01:47:52;;;;;;;20.35;4.17;;;;;;;4.27;83.80;100473.38;1721173;81;21062;-51
2021/12/17 01:56:16;;;;;;;20.55;4.35;;;;;;;4.36;83.60;100467.61;1719655;81;20998;-50
2021/12/17 02:01:17;;;;;;;20.52;5.90;;;;;;;4.31;83.73;100475.05;1722171;81;21013;-50
2021/12/17 02:03:43;;;;;;;21.00;4.85;;;;;;;4.27;83.97;100462.51;1720468;81;21053;-48
2021/12/17 02:06:08;;;;;;;11.90;3.27;;;;;;;4.31;83.99;100462.92;1720406;82;21009;-50
2021/12/17 02:08:35;;;;;;;14.20;3.62;;;;;;;4.32;83.69;100455.96;1723478;81;21658;-53
2021/12/17 02:22:14;;;;;;;21.40;4.12;;;;;;;4.27;83.56;100457.75;1721957;81;21974;-50
2021/12/17 02:32:36;;;;;;;25.10;4.28;;;;;;;4.30;83.53;100462.48;1654538;84;21003;-53
2021/12/17 02:37:49;;;;;;;16.32;4.25;;;;;;;4.27;83.60;100442.12;1656766;85;20439;-49
2021/12/17 02:45:44;;;;;;;15.50;4.00;;;;;;;4.18;84.00;100441.78;1761798;80;21094;-51
2021/12/17 02:48:22;;;;;;;18.05;4.33;;;;;;;4.16;84.22;100439.63;1761964;80;21471;-48
2021/12/17 02:50:55;;;;;;;20.77;4.87;;;;;;;4.09;84.54;100445.33;1761928;81;21015;-51
2021/12/17 02:53:23;;;;;;;11.83;3.98;;;;;;;4.04;84.63;100454.95;1761910;81;20967;-49
2021/12/17 02:55:54;;;;;;;17.35;3.92;;;;;;;4.14;84.69;100447.45;1761862;80;21448;-50
2021/12/17 02:58:27;;;;;;;20.97;4.15;;;;;;;4.20;84.42;100452.62;1761732;81;20967;-48
2021/12/17 03:00:54;;;;;;;25.68;6.28;;;;;;;4.15;84.10;100455.70;1761834;81;21038;-52
2021/12/17 03:03:26;;;;;;;21.42;4.87;;;;;;;4.16;84.46;100450.90;1762183;81;20995;-51
2021/12/17 03:05:53;;;;;;;17.42;4.47;;;;;;;4.15;84.27;100447.89;1761877;80;21007;-50
2021/12/17 03:08:19;;;;;;;20.57;4.70;;;;;;;4.12;84.64;100444.01;1761872;81;20993;-51
2021/12/17 03:10:48;;;;;;;18.42;4.78;;;;;;;4.07;84.46;100452.30;1761795;81;20995;-51
2021/12/17 03:13:18;;;;;;;19.52;4.03;;;;;;;4.07;84.87;100452.30;1761930;81;20964;-50
2021/12/17 03:15:58;;;;;;;20.77;4.08;;;;;;;4.02;85.05;100442.36;1761927;81;21441;-49
2021/12/17 03:23:40;;;;;;;17.30;4.63;;;;;;;4.06;84.78;100440.59;1762262;80;20987;-51
2021/12/17 03:26:15;;;;;;;21.97;4.10;;;;;;;3.98;84.87;100435.06;1761965;80;21038;-53
2021/12/17 03:28:45;;;;;;;28.07;5.40;;;;;;;4.06;85.02;100436.28;1761840;81;21468;-51
2021/12/17 03:31:13;;;;;;;20.62;4.80;;;;;;;4.03;84.60;100435.00;1761840;81;21475;-49
2021/12/17 03:33:42;;;;;;;21.20;4.70;;;;;;;4.07;84.61;100421.06;1761813;80;21022;-51
2021/12/17 03:36:11;;;;;;;28.02;4.60;;;;;;;4.10;84.50;100424.95;1761942;81;20948;-52
2021/12/17 03:38:39;;;;;;;15.18;4.17;;;;;;;4.16;84.20;100418.80;1761879;81;20988;-50
2021/12/17 03:41:15;;;;;;;15.43;3.52;;;;;;;4.20;84.04;100419.19;1761799;81;21586;-53
2021/12/17 03:43:33;;;;;;;14.50;3.62;;;;;;;4.16;83.88;100414.45;1760578;80;21003;-53
2021/12/17 03:45:59;;;;;;;19.35;3.77;;;;;;;4.20;83.81;100409.66;1761827;81;21516;-50
2021/12/17 03:48:25;;;;;;;15.93;4.10;;;;;;;4.22;83.35;100410.50;1761913;81;21427;-50
2021/12/17 03:50:50;;;;;;;20.95;4.45;;;;;;;4.14;83.35;100393.23;1761917;81;20963;-52
2021/12/17 03:53:16;;;;;;;18.42;5.08;;;;;;;4.17;83.61;100398.42;1761634;81;21031;-52
2021/12/17 03:55:42;;;;;;;19.90;4.55;;;;;;;4.16;83.37;100387.12;1761252;81;20968;-51
2021/12/17 03:58:08;;;;;;;20.27;4.37;;;;;;;4.16;83.09;100380.61;1761388;81;21038;-50
2021/12/17 04:00:34;;;;;;;21.45;5.10;;;;;;;4.13;82.99;100399.30;1761284;81;21469;-49
2021/12/17 04:03:01;;;;;;;21.30;4.50;;;;;;;4.14;83.00;100393.23;1761237;81;21015;-51
2021/12/17 04:05:27;;;;;;;18.50;4.42;;;;;;;4.14;83.09;100402.34;1761489;81;21025;-50
2021/12/17 04:07:53;;;;;;;13.83;3.83;;;;;;;4.01;83.22;100417.23;1761261;80;20967;-51
2021/12/17 04:10:20;;;;;;;18.75;4.78;;;;;;;4.04;83.27;100418.52;1761242;80;20987;-47
2021/12/17 04:13:03;;;;;;;16.60;4.60;;;;;;;4.07;83.12;100416.30;1761441;81;21042;-48
2021/12/17 04:15:36;;;;;;;15.88;4.20;;;;;;;4.03;83.02;100416.78;1760649;80;20940;-50
2021/12/17 04:18:09;;;;;;;19.35;4.00;;;;;;;3.93;83.12;100409.92;1761224;80;20983;-48
2021/12/17 04:20:35;;;;;;;14.90;3.70;;;;;;;3.96;83.04;100415.97;1761226;80;20952;-53
2021/12/17 04:23:02;;;;;;;12.20;3.62;;;;;;;4.03;83.04;100403.77;1761244;81;21466;-51
2021/12/17 04:25:28;;;;;;;18.05;4.08;;;;;;;4.02;83.06;100397.70;1761395;80;21022;-53
2021/12/17 04:27:57;;;;;;;13.68;3.40;;;;;;;4.12;83.03;100408.87;1761311;80;20982;-51
2021/12/17 04:30:24;;;;;;;15.08;3.77;;;;;;;4.15;83.06;100402.33;1761047;81;20959;-51
2021/12/17 04:32:50;;;;;;;27.32;4.90;;;;;;;4.16;82.98;100407.94;1761354;81;20990;-51
2021/12/17 04:35:16;;;;;;;20.20;4.90;;;;;;;4.11;82.78;100398.05;1761229;81;20988;-51
2021/12/17 04:37:42;;;;;;;19.67;4.03;;;;;;;4.21;82.70;100397.05;1761268;80;20990;-50
2021/12/17 04:40:09;;;;;;;24.98;4.33;;;;;;;3.98;82.84;100395.13;1761234;81;20995;-51
2021/12/17 04:42:51;;;;;;;15.00;3.83;;;;;;;4.02;83.18;100402.02;1754690;81;21059;-49
2021/12/17 04:45:04;;;;;;;20.05;3.92;;;;;;;4.03;83.21;100411.56;1746179;81;21489;-52
2021/12/17 04:58:26;;;;;;;26.10;4.80;;;;;;;4.09;83.24;100408.03;1748277;81;21527;-50
2021/12/17 05:00:53;;;;;;;20.72;4.47;;;;;;;4.08;83.15;100416.30;1748123;81;21043;-54
2021/12/17 05:03:19;;;;;;;23.95;4.12;;;;;;;4.07;83.30;100415.86;1748061;81;21168;-52
2021/12/17 05:05:45;;;;;;;17.62;3.60;;;;;;;4.12;83.20;100423.19;1748190;81;21485;-51
2021/12/17 05:08:15;;;;;;;19.12;3.92;;;;;;;4.11;83.29;100414.97;1748168;82;20964;-54
2021/12/17 05:18:46;;;;;;;20.23;4.65;;;;;;;4.08;82.92;100422.80;1748115;81;21492;-48
2021/12/17 05:21:07;;;;;;;18.80;4.22;;;;;;;3.96;83.34;100421.17;1747395;81;20983;-53
2021/12/17 05:23:40;;;;;;;16.25;3.52;;;;;;;4.00;83.41;100427.20;1748082;81;20960;-49
2021/12/17 05:26:08;;;;;;;15.25;4.65;;;;;;;3.97;83.21;100429.86;1747935;81;20960;-52
2021/12/17 05:28:34;;;;;;;22.58;5.30;;;;;;;4.03;83.43;100431.09;1748240;81;20952;-47
2021/12/17 05:31:01;;;;;;;17.92;5.12;;;;;;;3.98;83.60;100427.25;1748358;81;21026;-54
2021/12/17 05:33:27;;;;;;;18.32;4.53;;;;;;;4.01;83.35;100444.56;1748122;82;21002;-51
2021/12/17 05:35:55;;;;;;;20.52;4.50;;;;;;;4.04;83.64;100435.44;1748224;82;20964;-49
2021/12/17 05:38:24;;;;;;;9.80;3.12;;;;;;;3.95;83.56;100436.38;1748253;81;20988;-52
2021/12/17 05:40:50;;;;;;;17.05;4.70;;;;;;;3.98;83.59;100436.78;1737536;81;20984;-50
2021/12/17 05:43:17;;;;;;;18.87;4.40;;;;;;;4.00;83.24;100445.43;1748197;80;21052;-47
2021/12/17 05:48:26;;;;;;;19.12;5.37;;;;;;;3.85;83.52;100445.14;1748120;81;21528;-48
2021/12/17 05:50:56;;;;;;;19.55;4.17;;;;;;;4.03;83.20;100448.01;1748267;81;21001;-47
2021/12/17 05:53:24;;;;;;;20.10;5.00;;;;;;;4.07;83.28;100444.48;1747685;81;21474;-51
2021/12/17 05:55:50;;;;;;;17.92;4.95;;;;;;;4.03;83.04;100442.80;1748175;81;21019;-50
2021/12/17 05:58:17;;;;;;;18.75;4.70;;;;;;;4.00;83.13;100432.00;1748088;82;20987;-52
2021/12/17 06:00:44;;;;;;;21.93;4.87;;;;;;;3.98;83.31;100449.38;1748305;82;21582;-52
2021/12/17 06:03:10;;;;;;;19.80;4.70;;;;;;;4.02;83.17;100443.25;1748334;82;20960;-50
2021/12/17 06:05:36;;;;;;;32.10;5.15;;;;;;;3.97;83.31;100436.38;1748077;82;20987;-50
2021/12/17 06:08:04;;;;;;;20.68;4.70;;;;;;;4.00;83.40;100424.61;1748170;81;20999;-50
2021/12/17 06:10:31;;;;;;;26.50;5.40;;;;;;;4.08;83.38;100426.70;1748292;82;20987;-52
2021/12/17 06:12:57;;;;;;;24.35;5.00;;;;;;;4.05;83.22;100425.42;1748234;81;20983;-49
2021/12/17 06:15:25;;;;;;;20.12;5.30;;;;;;;3.98;83.55;100425.06;1748171;81;21027;-52
2021/12/17 06:17:52;;;;;;;21.50;5.25;;;;;;;4.06;83.59;100430.19;1748225;82;20988;-53
2021/12/17 06:20:19;;;;;;;;;;;;;;;4.11;83.27;100426.69;1750791;81;20987;-48
2021/12/17 06:22:47;;;;;;;19.55;4.97;;;;;;;4.13;83.40;100412.32;1748251;81;20163;-50
2021/12/17 06:25:13;;;;;;;17.30;4.12;;;;;;;4.02;83.39;100407.23;1748153;81;21027;-52
2021/12/17 06:27:40;;;;;;;21.73;5.08;;;;;;;4.09;83.51;100415.40;1748126;81;21008;-51
2021/12/17 06:30:09;;;;;;;20.40;4.42;;;;;;;4.04;83.72;100421.12;1748363;81;21004;-49
2021/12/17 06:32:34;;;;;;;20.17;4.60;;;;;;;4.02;83.92;100412.02;1748056;82;20987;-52
2021/12/17 06:35:00;;;;;;;23.07;4.95;;;;;;;4.00;83.73;100412.48;1748034;81;21004;-46
2021/12/17 06:37:26;;;;;;;19.50;4.25;;;;;;;3.96;84.07;100423.77;1748085;81;20991;-50
2021/12/17 06:39:52;;;;;;;22.87;4.12;;;;;;;3.87;84.21;100417.81;1748084;81;20992;-51
2021/12/17 06:42:19;;;;;;;12.65;3.80;;;;;;;3.78;84.42;100420.94;1749939;81;21023;-48
2021/12/17 06:44:47;;;;;;;18.77;4.72;;;;;;;3.74;84.93;100420.52;1761753;81;21022;-50
2021/12/17 06:47:37;;;;;;;21.00;4.40;;;;;;;3.60;85.29;100439.28;1761515;81;21032;-52
2021/12/17 06:49:52;;;;;;;18.82;4.62;;;;;;;3.60;85.47;100431.48;1755223;80;20960;-50
2021/12/17 07:00:38;;;;;;;20.17;4.05;;;;;;;3.63;85.60;100428.42;1761398;80;21116;-50
2021/12/17 07:11:16;;;;;;;17.23;4.00;;;;;;;3.74;85.47;100427.02;1761493;81;21026;-51
2021/12/17 07:39:35;;;;;;;29.52;6.25;;;;;;;3.69;86.27;100418.84;1761553;81;21018;-50
2021/12/17 07:42:02;;;;;;;21.30;4.80;;;;;;;3.74;86.31;100423.13;1761583;81;20984;-51
2021/12/17 07:44:28;;;;;;;32.42;6.55;;;;;;;3.66;86.63;100415.84;1749125;81;21136;-53
2021/12/17 07:46:54;;;;;;;30.68;5.97;;;;;;;3.72;86.37;100417.52;1748192;81;21494;-53
2021/12/17 07:49:20;;;;;;;24.47;4.72;;;;;;;3.65;86.52;100424.51;1748221;81;21599;-54
2021/12/17 07:51:46;;;;;;;28.30;5.87;;;;;;;3.78;86.30;100431.34;1748199;82;20992;-52
2021/12/17 07:54:12;;;;;;;28.27;6.42;;;;;;;3.72;86.49;100431.38;1748128;81;20988;-49
2021/12/17 07:56:38;;;;;;;25.50;5.35;;;;;;;3.58;86.86;100441.04;1748228;81;21520;-50
2021/12/17 07:59:10;;;;;;;18.87;5.45;;;;;;;3.61;86.62;100445.78;1748197;82;21422;-51
2021/12/17 08:01:37;;;;;;;25.20;4.78;;;;;;;3.62;86.80;100445.33;1748203;81;20996;-53
2021/12/17 08:04:06;;;;;;;25.00;5.80;;;;;;;3.65;86.51;100440.11;1748337;81;20996;-52
2021/12/17 08:06:34;;;;;;;18.40;5.42;;;;;;;3.59;86.75;100446.69;1748167;81;20968;-48
2021/12/17 08:09:00;;;;;;;17.87;4.75;;;;;;;3.60;87.03;100450.98;1748191;81;20987;-53
2021/12/17 08:11:26;;;;;;;20.82;6.17;;;;;;;3.59;86.85;100449.28;1748246;81;21456;-52
2021/12/17 08:13:54;;;;;;;23.67;5.95;;;;;;;3.65;86.60;100457.87;1748226;81;21512;-47
2021/12/17 08:26:42;;;;;;;24.92;7.47;;;;;;;3.64;86.48;100465.28;1748248;81;20980;-50
2021/12/17 08:31:26;;;;;;;25.20;6.35;;;;;;;3.60;86.65;100473.10;1748175;81;21432;-49
2021/12/17 08:33:52;;;;;;;21.20;7.28;;;;;;;3.50;86.63;100469.72;1748218;82;21056;-50
2021/12/17 08:36:18;;;;;;;24.63;5.75;;;;;;;3.59;86.26;100450.14;1748206;81;20968;-49
2021/12/17 08:38:46;;;;;;;23.47;6.62;;;;;;;3.54;86.12;100453.20;1748134;81;20996;-53
2021/12/17 08:41:14;;;;;;;17.85;5.22;;;;;;;3.62;86.25;100455.73;1748172;81;21602;-52
2021/12/17 08:43:41;;;;;;;21.90;5.42;;;;;;;3.70;85.93;100456.55;1748295;81;21035;-51
2021/12/17 08:46:07;;;;;;;20.77;6.60;;;;;;;3.69;85.75;100456.56;1748302;81;20983;-49
2021/12/17 08:48:33;;;;;;;18.57;4.67;;;;;;;3.69;85.52;100468.27;1748224;81;21647;-51
2021/12/17 08:51:00;;;;;;;27.67;6.25;;;;;;;3.64;85.73;100466.58;1748215;82;21479;-50
2021/12/17 08:53:26;;;;;;;22.73;5.33;;;;;;;3.65;86.02;100470.03;1748342;81;20995;-50
2021/12/17 08:55:52;;;;;;;17.30;6.37;;;;;;;3.67;85.46;100468.27;1748186;81;20988;-50
2021/12/17 08:58:18;;;;;;;31.15;9.88;;;;;;;3.69;85.52;100478.23;1748140;82;20964;-52
2021/12/17 09:00:46;;;;;;;22.15;6.12;;;;;;;3.57;85.98;100467.50;1748189;81;21510;-50
2021/12/17 09:03:12;;;;;;;;;;;;;;;3.63;85.58;100471.78;1750860;81;20991;-51
2021/12/17 09:05:42;;;;;;;16.65;5.05;;;;;;;3.64;85.51;100490.44;1748243;81;20137;-50
2021/12/17 09:08:09;;;;;;;23.95;6.25;;;;;;;3.57;85.29;100470.09;1748144;81;21520;-51
2021/12/17 09:10:35;;;;;;;;;;;;;;;3.61;85.36;100477.00;1750756;82;20995;-52
2021/12/17 09:13:03;;;;;;;24.10;5.08;;;;;;;3.63;85.28;100475.69;1748407;81;20101;-51
2021/12/17 09:15:29;;;;;;;18.23;4.80;;;;;;;3.55;85.36;100464.50;1748196;81;21026;-52
2021/12/17 09:17:55;;;;;;;17.35;4.10;;;;;;;3.45;86.04;100463.23;1748126;81;21027;-52
2021/12/17 09:20:21;;;;;;;23.22;5.25;;;;;;;3.50;85.94;100464.96;1748210;81;20964;-51
2021/12/17 09:22:47;;;;;;;18.80;4.75;;;;;;;3.65;85.54;100459.17;1748258;81;20953;-50
2021/12/17 09:25:14;;;;;;;26.55;6.67;;;;;;;3.68;85.22;100458.76;1748180;81;20999;-51
2021/12/17 09:27:41;;;;;;;22.52;5.50;;;;;;;3.63;85.69;100452.27;1748281;81;21837;-51
2021/12/17 09:30:15;;;;;;;18.43;6.67;;;;;;;3.77;85.57;100464.73;1748392;81;21019;-51
2021/12/17 09:32:41;;;;;;;26.73;7.62;;;;;;;3.78;85.14;100471.67;1748129;81;21438;-52
2021/12/17 09:35:09;;;;;;;25.30;6.30;;;;;;;3.73;84.82;100466.95;1748143;81;21480;-52
2021/12/17 09:37:36;;;;;;;14.15;4.60;;;;;;;3.80;84.73;100480.33;1748092;81;20968;-53
2021/12/17 09:40:06;;;;;;;17.23;4.50;;;;;;;3.71;84.34;100466.09;1748161;81;21051;-50
2021/12/17 09:42:33;;;;;;;17.48;4.62;;;;;;;3.73;84.58;100468.24;1748148;81;21454;-53
2021/12/17 09:44:59;;;;;;;;;;;;;;;3.70;84.61;100468.26;1763337;81;21014;-49
2021/12/17 09:47:25;;;;;;;25.82;5.47;;;;;;;3.75;84.67;100469.09;1761472;81;20144;-50
2021/12/17 09:49:55;;;;;;;18.87;5.55;;;;;;;3.79;84.74;100475.13;1761492;81;20955;-50
2021/12/17 09:52:20;;;;;;;20.23;4.70;;;;;;;3.89;84.47;100475.91;1761438;81;20987;-53
2021/12/17 09:54:47;;;;;;;16.65;4.87;;;;;;;3.83;84.56;100482.88;1761430;81;20983;-50
2021/12/17 09:57:13;;;;;;;26.15;6.62;;;;;;;3.88;84.19;100488.06;1761725;81;20959;-52
2021/12/17 09:59:39;;;;;;;23.62;6.95;;;;;;;3.92;84.32;100494.95;1761514;81;21034;-52
2021/12/17 10:02:06;;;;;;;14.53;4.67;;;;;;;3.95;83.79;100486.28;1761390;81;21011;-50
2021/12/17 10:04:32;;;;;;;22.15;4.53;;;;;;;3.89;83.69;100477.20;1761677;81;21449;-51
2021/12/17 10:07:28;;;;;;;17.77;4.80;;;;;;;3.99;83.72;100491.42;1761447;80;21034;-52
2021/12/17 10:09:58;;;;;;;19.50;5.03;;;;;;;3.89;83.83;100470.70;1761471;81;20964;-52
2021/12/17 10:12:30;;;;;;;23.47;5.45;;;;;;;3.77;84.22;100472.53;1761512;80;21050;-53
2021/12/17 10:15:08;;;;;;;20.95;5.00;;;;;;;3.79;83.93;100473.38;1761477;81;21124;-50
2021/12/17 10:17:36;;;;;;;;;;;;;;;3.86;83.93;100475.50;1764152;81;21026;-53
2021/12/17 10:20:07;;;;;;;20.65;4.22;;;;;;;3.92;83.85;100461.57;1759200;81;20104;-49
2021/12/17 10:22:33;;;;;;;20.75;4.83;;;;;;;3.96;83.76;100477.13;1761014;81;21601;-51
2021/12/17 10:25:07;;;;;;;21.30;5.80;;;;;;;3.93;83.55;100478.89;1761603;81;21035;-50
2021/12/17 10:27:37;;;;;;;16.70;4.67;;;;;;;4.00;83.41;100464.53;1761453;81;21489;-54
2021/12/17 10:30:14;;;;;;;18.50;4.53;;;;;;;3.91;82.92;100473.73;1760664;81;21444;-51
2021/12/17 10:32:44;;;;;;;15.90;4.65;;;;;;;3.99;82.92;100461.94;1760696;81;21539;-49
2021/12/17 10:35:17;;;;;;;20.68;5.17;;;;;;;3.96;82.94;100462.81;1761455;81;21562;-50
2021/12/17 10:37:55;;;;;;;19.45;4.80;;;;;;;3.91;83.31;100459.83;1761493;81;21027;-51
2021/12/17 10:40:24;;;;;;;21.97;4.80;;;;;;;4.01;83.00;100456.28;1761079;81;21023;-49
2021/12/17 10:43:06;;;;;;;14.38;4.40;;;;;;;3.91;83.18;100452.02;1758176;80;20999;-50
2021/12/17 10:45:41;;;;;;;16.07;4.30;;;;;;;3.96;82.78;100445.05;1755447;81;21538;-51
2021/12/17 10:48:26;;;;;;;20.35;5.03;;;;;;;4.08;82.67;100455.34;1755321;81;21014;-52
2021/12/17 10:50:54;;;;;;;27.07;5.20;;;;;;;3.97;82.53;100450.69;1750195;81;20972;-52
2021/12/17 10:53:25;;;;;;;22.10;4.72;;;;;;;4.01;82.67;100458.43;1757799;81;21065;-49
2021/12/17 10:55:53;;;;;;;20.95;4.58;;;;;;;4.06;82.08;100451.01;1759270;81;21539;-48
2021/12/17 10:58:20;;;;;;;19.50;3.85;;;;;;;4.17;81.93;100446.58;1761403;81;21046;-49
2021/12/17 11:01:05;;;;;;;19.98;5.70;;;;;;;4.02;81.79;100448.45;1761335;81;21035;-51
2021/12/17 11:03:30;;;;;;;20.17;4.97;;;;;;;4.02;81.90;100442.36;1761169;81;20948;-49
2021/12/17 11:05:56;;;;;;;19.40;5.30;;;;;;;4.15;82.00;100443.13;1744432;81;21050;-50
2021/12/17 11:08:28;;;;;;;25.05;5.58;;;;;;;4.15;81.95;100437.48;1761526;81;21022;-47
2021/12/17 11:10:58;;;;;;;18.77;5.47;;;;;;;4.20;81.93;100438.30;1759671;81;21059;-49
2021/12/17 11:13:25;;;;;;;21.35;4.97;;;;;;;4.23;81.77;100436.94;1756146;81;21023;-50
2021/12/17 11:15:53;;;;;;;15.15;4.45;;;;;;;4.27;81.75;100439.52;1756001;80;21025;-50
2021/12/17 11:18:20;;;;;;;14.40;4.33;;;;;;;4.16;81.45;100432.67;1756065;82;21484;-53
2021/12/17 11:20:47;;;;;;;18.07;4.45;;;;;;;4.12;81.60;100426.23;1756413;81;20979;-47
2021/12/17 11:23:15;;;;;;;19.42;4.17;;;;;;;4.08;81.34;100430.61;1758196;80;20979;-51
2021/12/17 11:25:45;;;;;;;16.97;4.12;;;;;;;4.14;81.64;100424.02;1761315;81;21472;-51
2021/12/17 11:28:12;;;;;;;15.78;3.92;;;;;;;4.14;81.31;100425.33;1760578;80;20990;-52
2021/12/17 11:30:43;;;;;;;12.30;4.05;;;;;;;4.09;81.30;100416.70;1758551;81;21362;-50
2021/12/17 11:33:09;;;;;;;16.17;3.90;;;;;;;4.30;81.24;100425.17;1760651;81;20999;-48
2021/12/17 11:35:39;;;;;;;15.95;4.17;;;;;;;4.14;81.12;100418.81;1761863;81;21579;-49
2021/12/17 11:38:10;;;;;;;20.48;4.53;;;;;;;4.21;81.32;100429.59;1761317;81;20995;-50
2021/12/17 11:40:53;;;;;;;14.95;4.22;;;;;;;4.20;80.77;100432.20;1760182;81;20991;-50
2021/12/17 11:43:54;;;;;;;19.48;4.42;;;;;;;4.19;80.86;100427.45;1761184;81;21473;-50
2021/12/17 11:46:34;;;;;;;13.38;4.15;;;;;;;4.27;81.00;100418.69;1761393;81;20999;-49
2021/12/17 11:49:13;;;;;;;14.87;3.77;;;;;;;4.11;81.10;100429.28;1761343;81;20987;-51
2021/12/17 11:51:40;;;;;;;16.10;3.77;;;;;;;4.18;80.74;100428.34;1761430;81;20967;-53
2021/12/17 11:54:15;;;;;;;12.18;3.87;;;;;;;4.18;80.81;100420.53;1761701;81;21468;-52
2021/12/17 11:56:52;;;;;;;31.95;3.62;;;;;;;4.27;80.38;100422.14;1761210;81;21498;-49
2021/12/17 11:59:31;;;;;;;20.87;4.40;;;;;;;4.20;80.39;100435.69;1761670;81;21508;-49
2021/12/17 12:02:22;;;;;;;15.83;4.75;;;;;;;4.24;80.20;100423.50;1761301;81;21014;-48
2021/12/17 12:05:00;;;;;;;23.25;6.25;;;;;;;4.26;80.46;100410.02;1761378;81;20994;-51
2021/12/17 12:07:33;;;;;;;15.85;4.33;;;;;;;4.36;80.05;100425.09;1761287;81;20980;-50
2021/12/17 12:10:14;;;;;;;18.75;4.60;;;;;;;4.32;79.83;100420.80;1761382;81;20988;-49
2021/12/17 12:12:52;;;;;;;14.28;3.55;;;;;;;4.35;79.57;100422.94;1761595;81;20952;-50
2021/12/17 12:15:22;;;;;;;;;;;;;;;4.33;79.24;100419.91;1764263;81;21030;-49
2021/12/17 12:18:06;;;;;;;20.00;5.08;;;;;;;4.23;79.35;100417.41;1761475;81;20699;-51
2021/12/17 12:20:52;;;;;;;20.92;4.60;;;;;;;4.31;79.54;100414.75;1759637;80;21026;-52
2021/12/17 12:23:32;;;;;;;17.25;4.25;;;;;;;4.39;80.06;100415.50;1747313;81;20984;-51
2021/12/17 12:26:12;;;;;;;15.23;3.92;;;;;;;4.38;79.97;100409.89;1760696;81;21023;-53
2021/12/17 12:28:49;;;;;;;19.40;4.47;;;;;;;4.44;79.46;100398.53;1759977;81;21551;-51
2021/12/17 12:31:35;;;;;;;19.42;4.45;;;;;;;4.47;79.40;100402.83;1750806;81;21008;-52
2021/12/17 12:34:10;;;;;;;14.23;4.20;;;;;;;4.48;79.30;100400.20;1761388;81;20943;-53
2021/12/17 12:36:55;;;;;;;13.48;4.12;;;;;;;4.47;79.06;100406.28;1760875;81;21393;-51
2021/12/17 12:39:37;;;;;;;16.65;3.85;;;;;;;4.43;78.53;100393.73;1760383;81;21497;-54
2021/12/17 12:42:09;;;;;;;14.10;3.30;;;;;;;4.43;78.36;100394.19;1761523;81;21019;-51
2021/12/17 12:44:52;;;;;;;14.70;3.80;;;;;;;4.39;78.63;100389.45;1755493;80;20989;-52
2021/12/17 12:47:29;;;;;;;13.60;4.00;;;;;;;4.32;78.75;100398.67;1748215;81;21500;-51
2021/12/17 12:50:07;;;;;;;;;;;;;;;4.30;79.15;100384.81;1750784;81;21489;-50
2021/12/17 12:52:51;;;;;;;13.38;4.20;;;;;;;4.38;79.31;100409.00;1748127;82;20129;-49
2021/12/17 12:55:41;;;;;;;12.60;4.97;;;;;;;4.50;79.22;100402.34;1748272;82;20945;-50
2021/12/17 12:58:29;;;;;;;13.00;3.47;;;;;;;4.41;78.80;100405.92;1747342;81;21035;-51
2021/12/17 13:01:01;;;;;;;10.53;3.50;;;;;;;4.46;78.92;100387.65;1746695;81;21583;-52
2021/12/17 13:03:31;;;;;;;16.10;3.98;;;;;;;4.60;78.56;100387.45;1746532;81;21075;-52
2021/12/17 13:06:03;;;;;;;18.27;4.00;;;;;;;4.52;78.59;100383.65;1746847;81;21615;-52
2021/12/17 13:08:30;;;;;;;13.93;3.80;;;;;;;4.50;78.16;100388.47;1745970;81;21561;-48
2021/12/17 13:11:00;;;;;;;18.37;4.92;;;;;;;4.41;78.14;100404.62;1747961;81;21687;-50
2021/12/17 13:13:36;;;;;;;10.53;3.45;;;;;;;4.36;78.11;100406.41;1747956;81;21383;-50
2021/12/17 13:16:34;;;;;;;14.28;3.47;;;;;;;4.33;78.25;100397.36;1747163;81;20980;-51
2021/12/17 13:21:59;;;;;;;17.42;4.15;;;;;;;4.31;78.37;100400.84;1748000;82;21509;-53
2021/12/17 13:24:20;;;;;;;15.13;4.05;;;;;;;4.38;78.41;100388.17;1745934;81;21016;-50
2021/12/17 13:26:57;;;;;;;15.93;4.58;;;;;;;4.30;78.65;100404.34;1746232;81;21171;-50
2021/12/17 13:29:39;;;;;;;16.12;3.87;;;;;;;4.24;78.43;100400.07;1741641;81;21056;-52
2021/12/17 13:32:09;;;;;;;21.45;4.50;;;;;;;4.30;78.60;100395.23;1746431;81;20971;-50
2021/12/17 13:34:43;;;;;;;22.82;4.33;;;;;;;4.25;78.43;100402.23;1746300;82;20995;-50
2021/12/17 13:37:20;;;;;;;12.65;4.80;;;;;;;4.23;78.74;100405.70;1746216;82;20971;-52
2021/12/17 13:39:59;;;;;;;20.37;6.42;;;;;;;4.27;78.69;100409.58;1746382;82;20980;-49
2021/12/17 13:42:46;;;;;;;16.93;5.28;;;;;;;4.24;78.71;100420.91;1746240;82;20987;-49
2021/12/17 13:45:13;;;;;;;17.85;5.35;;;;;;;4.18;78.94;100431.36;1748158;81;21012;-46
2021/12/17 13:47:46;;;;;;;21.97;5.62;;;;;;;4.17;78.61;100433.11;1752255;82;20995;-53
2021/12/17 13:50:30;;;;;;;18.20;4.55;;;;;;;4.17;78.72;100444.83;1753337;82;21031;-52
2021/12/17 13:53:01;;;;;;;19.00;4.90;;;;;;;4.18;79.04;100457.40;1753295;82;20996;-51
2021/12/17 13:55:36;;;;;;;18.87;4.33;;;;;;;4.12;79.25;100466.14;1753136;81;20944;-51
2021/12/17 13:58:10;;;;;;;17.62;5.65;;;;;;;4.20;79.08;100455.64;1753183;81;21832;-51
2021/12/17 14:00:39;;;;;;;17.15;5.03;;;;;;;4.26;79.02;100449.50;1752902;82;20999;-49
2021/12/17 14:03:13;;;;;;;21.52;5.58;;;;;;;4.28;78.99;100445.16;1753101;82;21062;-52
2021/12/17 14:05:58;;;;;;;18.75;6.22;;;;;;;4.22;79.11;100445.65;1752883;80;21507;-46
2021/12/17 14:08:21;;;;;;;19.12;6.03;;;;;;;4.23;79.02;100451.27;1749288;80;21028;-50
2021/12/17 14:10:50;;;;;;;23.38;6.00;;;;;;;4.18;79.14;100445.27;1750063;80;21488;-53
2021/12/17 14:13:23;;;;;;;19.95;8.88;;;;;;;4.15;79.29;100438.78;1753353;81;21050;-51
2021/12/17 14:15:51;;;;;;;16.82;7.33;;;;;;;4.15;79.38;100437.92;1753344;82;21457;-49
2021/12/17 14:18:21;;;;;;;;;;;;;;;4.11;79.48;100425.38;1755766;80;20982;-49
2021/12/17 14:20:51;;;;;;;21.17;5.65;;;;;;;4.17;79.52;100433.56;1753014;81;20117;-48
2021/12/17 14:23:24;;;;;;;21.10;5.37;;;;;;;4.10;80.13;100428.85;1753032;81;21472;-48
2021/12/17 14:26:01;;;;;;;21.35;6.10;;;;;;;4.14;79.88;100433.14;1753034;82;20983;-50
2021/12/17 14:28:30;;;;;;;15.85;5.47;;;;;;;4.16;80.13;100429.22;1736000;82;21618;-48
2021/12/17 14:31:04;;;;;;;17.70;5.45;;;;;;;4.11;80.21;100424.50;1752861;82;21606;-49
2021/12/17 14:33:37;;;;;;;16.62;5.40;;;;;;;4.11;80.14;100441.00;1752917;81;20999;-47